createdAt,value
2022-10-19T00:00:15.670Z,2.00
2022-10-19T00:03:01.014Z,2.42
2022-10-19T00:06:00.467Z,2.58
2022-10-19T00:08:47.645Z,2.33
2022-10-19T00:11:34.866Z,3.47
2022-10-19T00:14:23.631Z,2.85
2022-10-19T00:17:08.793Z,2.47
2022-10-19T00:20:09.413Z,1.80
2022-10-19T00:22:54.946Z,1.75
2022-10-19T00:25:49.559Z,3.15
2022-10-19T00:28:45.770Z,2.83
2022-10-19T00:34:51.654Z,3.00
2022-10-19T00:37:52.427Z,2.50
2022-10-19T00:40:39.698Z,2.92
2022-10-19T00:43:44.524Z,2.85
2022-10-19T00:46:52.165Z,2.10
2022-10-19T00:49:43.824Z,2.38
2022-10-19T00:52:30.209Z,2.38
2022-10-19T00:55:16.378Z,2.47
2022-10-19T00:58:25.114Z,2.25
2022-10-19T01:01:17.330Z,3.08
2022-10-19T01:04:11.810Z,2.42
2022-10-19T01:06:59.313Z,2.72
2022-10-19T01:09:44.654Z,2.72
2022-10-19T01:12:40.562Z,2.55
2022-10-19T01:15:38.114Z,2.50
2022-10-19T01:22:50.600Z,2.38
2022-10-19T01:25:57.646Z,2.30
2022-10-19T01:28:48.849Z,3.25
2022-10-19T01:32:06.600Z,2.83
2022-10-19T01:35:26.118Z,2.60
2022-10-19T01:38:16.162Z,3.13
2022-10-19T01:41:20.618Z,1.73
2022-10-19T01:44:26.086Z,2.40
2022-10-19T01:47:18.732Z,2.50
2022-10-19T01:50:27.255Z,2.00
2022-10-19T01:53:14.054Z,2.72
2022-10-19T01:56:02.886Z,2.40
2022-10-19T02:02:11.832Z,2.28
2022-10-19T02:05:03.710Z,2.42
2022-10-19T02:08:16.504Z,2.60
2022-10-19T02:11:06.350Z,2.70
2022-10-19T02:14:07.756Z,2.75
2022-10-19T02:17:00.938Z,2.67
2022-10-19T02:19:46.396Z,2.70
2022-10-19T02:22:32.483Z,2.97
2022-10-19T02:25:18.315Z,2.00
2022-10-19T02:28:08.578Z,1.90
2022-10-19T02:30:54.413Z,1.90
2022-10-19T02:33:56.692Z,1.70
2022-10-19T02:37:09.677Z,2.05
2022-10-19T02:40:25.603Z,1.90
2022-10-19T02:43:19.317Z,1.60
2022-10-19T02:46:31.363Z,2.65
2022-10-19T02:49:17.646Z,2.28
2022-10-19T02:52:05.732Z,2.10
2022-10-19T02:55:00.378Z,2.95
2022-10-19T02:57:59.398Z,2.00
2022-10-19T03:00:44.601Z,2.60
2022-10-19T03:03:38.293Z,1.90
2022-10-19T03:09:59.139Z,1.83
2022-10-19T03:12:44.462Z,2.95
2022-10-19T03:15:59.558Z,2.28
2022-10-19T03:22:47.743Z,2.72
2022-10-19T03:25:33.300Z,2.33
2022-10-19T03:28:18.606Z,2.30
2022-10-19T03:31:18.024Z,2.15
2022-10-19T03:34:15.893Z,3.10
2022-10-19T03:37:01.425Z,2.42
2022-10-19T03:40:16.675Z,3.20
2022-10-19T03:43:13.118Z,3.10
2022-10-19T03:49:13.983Z,2.97
2022-10-19T03:55:55.291Z,3.03
2022-10-19T03:59:05.088Z,2.72
2022-10-19T04:02:35.590Z,2.53
2022-10-19T04:05:25.835Z,3.03
2022-10-19T04:08:37.891Z,3.00
2022-10-19T04:12:09.155Z,4.32
2022-10-19T04:15:12.694Z,3.22
2022-10-19T04:17:58.985Z,2.17
2022-10-19T04:21:15.112Z,3.55
2022-10-19T04:24:20.706Z,4.43
2022-10-19T04:27:29.279Z,2.72
2022-10-19T04:30:44.403Z,3.20
2022-10-19T04:36:46.017Z,4.20
2022-10-19T04:39:45.884Z,3.45
2022-10-19T04:43:13.763Z,3.20
2022-10-19T04:46:39.747Z,3.17
2022-10-19T04:49:29.108Z,3.40
2022-10-19T04:52:14.832Z,3.63
2022-10-19T04:55:00.039Z,4.35
2022-10-19T04:57:45.662Z,4.00
2022-10-19T05:00:31.084Z,4.30
2022-10-19T05:03:17.358Z,3.60
2022-10-19T05:06:02.580Z,5.25
2022-10-19T05:08:50.190Z,3.97
2022-10-19T05:11:35.669Z,3.78
2022-10-19T05:14:21.138Z,3.50
2022-10-19T05:17:06.659Z,3.50
2022-10-19T05:19:52.097Z,3.97
2022-10-19T05:22:38.698Z,4.97
2022-10-19T05:25:24.000Z,4.60
2022-10-19T05:28:09.460Z,3.80
2022-10-19T05:30:55.625Z,4.38
2022-10-19T05:33:42.018Z,6.00
2022-10-19T05:36:32.334Z,5.22
2022-10-19T05:39:18.640Z,4.82
2022-10-19T05:42:04.323Z,5.72
2022-10-19T05:44:49.830Z,4.93
2022-10-19T05:47:35.793Z,5.38
2022-10-19T05:50:21.408Z,4.85
2022-10-19T05:53:06.933Z,6.03
2022-10-19T05:55:52.632Z,5.43
2022-10-19T05:58:38.211Z,5.05
2022-10-19T06:01:24.267Z,6.22
2022-10-19T06:04:10.847Z,5.70
2022-10-19T06:06:56.362Z,5.55
2022-10-19T06:09:41.938Z,6.55
2022-10-19T06:12:27.167Z,5.28
2022-10-19T06:15:13.098Z,6.10
2022-10-19T06:17:58.581Z,6.43
2022-10-19T06:20:44.173Z,5.65
2022-10-19T06:23:30.424Z,6.18
2022-10-19T06:26:15.658Z,7.63
2022-10-19T06:29:02.274Z,6.55
2022-10-19T06:31:48.256Z,6.75
2022-10-19T06:34:33.484Z,6.00
2022-10-19T06:37:19.287Z,9.30
2022-10-19T06:40:07.198Z,7.15
2022-10-19T06:42:54.501Z,6.65
2022-10-19T06:45:39.854Z,6.50
2022-10-19T06:48:25.406Z,5.82
2022-10-19T06:51:11.878Z,6.45
2022-10-19T06:53:57.612Z,7.07
2022-10-19T06:56:43.299Z,7.63
2022-10-19T06:59:28.651Z,7.30
2022-10-19T07:02:14.521Z,6.15
2022-10-19T07:05:04.476Z,4.80
2022-10-19T07:07:52.378Z,5.95
2022-10-19T07:10:37.820Z,5.47
2022-10-19T07:13:23.717Z,5.40
2022-10-19T07:16:15.952Z,5.32
2022-10-19T07:19:04.857Z,4.78
2022-10-19T07:21:53.422Z,4.30
2022-10-19T07:24:38.876Z,5.03
2022-10-19T07:27:24.969Z,4.85
2022-10-19T07:30:10.797Z,4.57
2022-10-19T07:32:55.944Z,4.57
2022-10-19T07:35:41.488Z,4.57
2022-10-19T07:38:27.078Z,4.10
2022-10-19T07:41:15.328Z,3.33
2022-10-19T07:44:01.728Z,3.80
2022-10-19T07:46:47.171Z,3.30
2022-10-19T07:49:32.541Z,3.72
2022-10-19T07:52:18.150Z,3.95
2022-10-19T07:55:03.771Z,2.95
2022-10-19T07:57:49.797Z,3.20
2022-10-19T08:00:35.069Z,4.97
2022-10-19T08:06:26.635Z,3.45
2022-10-19T08:09:27.634Z,4.60
2022-10-19T08:12:17.402Z,3.30
2022-10-19T08:15:02.943Z,3.35
2022-10-19T08:17:48.471Z,3.40
2022-10-19T08:20:33.855Z,3.22
2022-10-19T08:23:19.479Z,3.88
2022-10-19T08:26:05.134Z,4.10
2022-10-19T08:28:50.690Z,4.18
2022-10-19T08:31:36.608Z,3.38
2022-10-19T08:34:22.116Z,4.25
2022-10-19T08:37:19.732Z,3.42
2022-10-19T08:40:24.075Z,3.30
2022-10-19T08:43:24.795Z,4.18
2022-10-19T08:46:34.286Z,4.45
2022-10-19T08:49:23.527Z,3.78
2022-10-19T08:52:21.403Z,4.13
2022-10-19T08:55:19.770Z,5.40
2022-10-19T08:58:25.099Z,3.22
2022-10-19T09:01:16.400Z,3.95
2022-10-19T09:04:13.095Z,3.90
2022-10-19T09:07:25.640Z,4.05
2022-10-19T09:10:10.752Z,3.70
2022-10-19T09:12:58.854Z,3.30
2022-10-19T09:15:46.981Z,4.30
2022-10-19T09:18:34.468Z,5.82
2022-10-19T09:21:48.555Z,4.05
2022-10-19T09:24:51.618Z,5.00
2022-10-19T09:27:40.518Z,4.32
2022-10-19T09:30:27.920Z,4.72
2022-10-19T09:33:23.115Z,4.28
2022-10-19T09:36:18.191Z,4.15
2022-10-19T09:39:12.344Z,4.03
2022-10-19T09:42:00.929Z,4.05
2022-10-19T09:44:47.110Z,4.95
2022-10-19T09:47:35.398Z,3.53
2022-10-19T09:50:31.156Z,3.53
2022-10-19T09:53:20.994Z,4.25
2022-10-19T09:56:08.700Z,3.97
2022-10-19T09:58:58.831Z,4.35
2022-10-19T10:01:44.381Z,4.70
2022-10-19T10:04:30.503Z,4.80
2022-10-19T10:07:19.009Z,4.70
2022-10-19T10:10:26.848Z,4.30
2022-10-19T10:13:19.179Z,5.57
2022-10-19T10:16:08.110Z,5.47
2022-10-19T10:19:01.151Z,4.55
2022-10-19T10:21:47.981Z,4.10
2022-10-19T10:24:34.667Z,4.45
2022-10-19T10:27:35.567Z,4.63
2022-10-19T10:30:21.179Z,4.63
2022-10-19T10:33:21.110Z,4.38
2022-10-19T10:36:13.115Z,4.38
2022-10-19T10:39:06.781Z,4.40
2022-10-19T10:41:52.093Z,5.10
2022-10-19T10:44:39.256Z,4.25
2022-10-19T10:47:27.744Z,4.28
2022-10-19T10:50:22.090Z,4.80
2022-10-19T10:53:37.727Z,4.65
2022-10-19T10:56:29.308Z,4.10
2022-10-19T10:59:26.280Z,4.93
2022-10-19T11:02:30.473Z,4.78
2022-10-19T11:05:24.123Z,4.57
2022-10-19T11:08:12.349Z,5.55
2022-10-19T11:11:06.514Z,4.80
2022-10-19T11:14:13.222Z,4.85
2022-10-19T11:17:04.058Z,4.60
2022-10-19T11:19:53.673Z,4.43
2022-10-19T11:23:14.636Z,4.38
2022-10-19T11:26:36.538Z,4.65
2022-10-19T11:29:52.362Z,4.70
2022-10-19T11:32:52.623Z,5.60
2022-10-19T11:36:00.141Z,4.97
2022-10-19T11:39:05.726Z,5.43
2022-10-19T11:41:59.994Z,4.22
2022-10-19T11:44:58.386Z,4.20
2022-10-19T11:47:53.895Z,4.97
2022-10-19T11:50:39.274Z,4.10
2022-10-19T11:53:33.890Z,3.95
2022-10-19T11:57:03.936Z,5.45
2022-10-19T12:00:03.729Z,3.95
2022-10-19T12:03:14.653Z,4.88
2022-10-19T12:06:14.460Z,4.78
2022-10-19T12:09:05.496Z,4.38
2022-10-19T12:11:56.471Z,3.97
2022-10-19T12:14:45.394Z,3.72
2022-10-19T12:17:36.410Z,3.58
2022-10-19T12:20:34.587Z,4.90
2022-10-19T12:23:37.344Z,4.55
2022-10-19T12:26:23.138Z,3.88
2022-10-19T12:29:25.557Z,4.88
2022-10-19T12:32:15.135Z,5.53
2022-10-19T12:38:43.929Z,4.63
2022-10-19T12:41:56.617Z,4.38
2022-10-19T12:44:53.765Z,4.22
2022-10-19T12:48:14.544Z,4.95
2022-10-19T12:51:03.193Z,5.75
2022-10-19T12:53:49.367Z,5.35
2022-10-19T12:56:48.667Z,3.63
2022-10-19T12:59:36.325Z,4.55
2022-10-19T13:02:30.375Z,4.80
2022-10-19T13:05:25.151Z,4.63
2022-10-19T13:08:28.672Z,4.95
2022-10-19T13:11:15.465Z,4.50
2022-10-19T13:14:19.723Z,4.35
2022-10-19T13:17:04.931Z,3.90
2022-10-19T13:19:50.165Z,5.18
2022-10-19T13:22:35.945Z,5.32
2022-10-19T13:25:37.257Z,5.15
2022-10-19T13:28:28.782Z,4.88
2022-10-19T13:31:27.143Z,4.60
2022-10-19T13:34:16.504Z,4.38
2022-10-19T13:37:03.703Z,5.05
2022-10-19T13:39:49.839Z,4.03
2022-10-19T13:42:35.404Z,4.63
2022-10-19T13:45:23.398Z,4.88
2022-10-19T13:48:25.835Z,5.50
2022-10-19T13:51:23.605Z,4.38
2022-10-19T13:54:47.858Z,4.15
2022-10-19T13:58:02.665Z,4.43
2022-10-19T14:01:10.123Z,4.30
2022-10-19T14:04:04.043Z,4.63
2022-10-19T14:06:56.023Z,4.18
2022-10-19T14:10:08.245Z,4.15
2022-10-19T14:12:54.186Z,4.55
2022-10-19T14:15:40.128Z,4.35
2022-10-19T14:18:28.706Z,4.43
2022-10-19T14:21:13.877Z,4.80
2022-10-19T14:24:00.028Z,4.50
2022-10-19T14:26:46.703Z,6.32
2022-10-19T14:29:36.641Z,5.80
2022-10-19T14:32:26.167Z,5.18
2022-10-19T14:35:24.450Z,5.53
2022-10-19T14:38:20.355Z,6.35
2022-10-19T14:41:06.912Z,5.10
2022-10-19T14:43:52.270Z,5.18
2022-10-19T14:46:37.543Z,5.93
2022-10-19T14:49:23.182Z,5.00
2022-10-19T14:52:11.017Z,4.45
2022-10-19T14:54:56.982Z,5.53
2022-10-19T14:57:45.618Z,5.60
2022-10-19T15:00:33.385Z,5.15
2022-10-19T15:03:25.855Z,7.28
2022-10-19T15:06:42.520Z,7.00
2022-10-19T15:09:43.964Z,6.57
2022-10-19T15:12:41.409Z,7.63
2022-10-19T15:15:29.383Z,6.38
2022-10-19T15:18:43.397Z,7.75
2022-10-19T15:21:23.736Z,6.72
2022-10-19T15:24:26.420Z,7.07
2022-10-19T15:27:20.750Z,8.33
2022-10-19T15:30:24.262Z,7.80
2022-10-19T15:33:15.828Z,7.30
2022-10-19T15:36:16.964Z,7.82
2022-10-19T15:39:24.686Z,6.60
2022-10-19T15:42:35.661Z,7.38
2022-10-19T15:45:35.905Z,6.85
2022-10-19T15:48:51.063Z,6.63
2022-10-19T15:51:44.624Z,7.15
2022-10-19T15:54:29.902Z,7.57
2022-10-19T15:57:36.929Z,6.80
2022-10-19T16:00:22.896Z,7.15
2022-10-19T16:03:09.157Z,7.55
2022-10-19T16:05:54.929Z,7.53
2022-10-19T16:08:40.186Z,7.07
2022-10-19T16:11:26.380Z,6.50
2022-10-19T16:14:12.077Z,6.75
2022-10-19T16:17:03.359Z,7.22
2022-10-19T16:19:49.290Z,9.77
2022-10-19T16:22:34.616Z,7.53
2022-10-19T16:25:20.723Z,6.93
2022-10-19T16:28:06.349Z,6.93
2022-10-19T16:30:53.745Z,6.72
2022-10-19T16:33:39.230Z,7.60
2022-10-19T16:36:24.823Z,7.35
2022-10-19T16:39:10.373Z,6.43
2022-10-19T16:41:55.822Z,6.70
2022-10-19T16:44:41.454Z,6.45
2022-10-19T16:47:26.854Z,7.85
2022-10-19T16:50:12.679Z,7.78
2022-10-19T16:53:12.237Z,7.28
2022-10-19T16:56:06.412Z,7.15
2022-10-19T16:59:01.062Z,9.57
2022-10-19T17:01:47.592Z,7.47
2022-10-19T17:04:33.363Z,7.40
2022-10-19T17:07:18.882Z,7.47
2022-10-19T17:10:05.052Z,7.13
2022-10-19T17:12:50.504Z,6.93
2022-10-19T17:15:42.796Z,7.82
2022-10-19T17:18:28.537Z,7.93
2022-10-19T17:21:26.664Z,8.90
2022-10-19T17:24:21.622Z,7.57
2022-10-19T17:27:07.433Z,7.53
2022-10-19T17:29:52.571Z,7.32
2022-10-19T17:32:38.118Z,7.70
2022-10-19T17:35:23.696Z,7.88
2022-10-19T17:38:09.286Z,7.80
2022-10-19T17:40:54.726Z,7.03
2022-10-19T17:43:42.141Z,7.80
2022-10-19T17:46:30.869Z,7.97
2022-10-19T17:49:16.488Z,7.20
2022-10-19T17:52:01.903Z,9.20
2022-10-19T17:54:54.751Z,7.50
2022-10-19T17:57:53.270Z,7.47
2022-10-19T18:00:39.500Z,10.45
2022-10-19T18:03:27.822Z,11.38
2022-10-19T18:06:22.191Z,11.85
2022-10-19T18:09:09.713Z,14.05
2022-10-19T18:11:55.527Z,15.50
2022-10-19T18:14:40.990Z,12.70
2022-10-19T18:17:27.779Z,14.23
2022-10-19T18:20:13.348Z,13.38
2022-10-19T18:22:58.993Z,13.68
2022-10-19T18:25:53.831Z,13.13
2022-10-19T18:28:40.834Z,10.85
2022-10-19T18:31:32.085Z,12.70
2022-10-19T18:34:20.542Z,13.45
2022-10-19T18:37:07.372Z,11.55
2022-10-19T18:39:53.860Z,12.65
2022-10-19T18:42:39.563Z,13.07
2022-10-19T18:45:31.406Z,12.20
2022-10-19T18:48:19.274Z,11.98
2022-10-19T18:51:10.124Z,12.90
2022-10-19T18:53:59.382Z,12.68
2022-10-19T18:56:45.057Z,12.52
2022-10-19T18:59:31.058Z,12.07
2022-10-19T19:02:22.785Z,12.93
2022-10-19T19:05:14.547Z,12.68
2022-10-19T19:08:00.038Z,13.07
2022-10-19T19:10:46.378Z,14.70
2022-10-19T19:13:33.990Z,13.77
2022-10-19T19:16:20.713Z,12.57
2022-10-19T19:19:08.434Z,12.93
2022-10-19T19:21:55.204Z,12.65
2022-10-19T19:24:42.271Z,13.45
2022-10-19T19:27:31.542Z,13.32
2022-10-19T19:30:17.551Z,12.43
2022-10-19T19:33:04.492Z,13.30
2022-10-19T19:35:52.295Z,14.63
2022-10-19T19:38:38.162Z,14.23
2022-10-19T19:41:24.576Z,14.43
2022-10-19T19:44:11.047Z,14.32
2022-10-19T19:46:58.221Z,13.65
2022-10-19T19:49:44.026Z,13.98
2022-10-19T19:52:29.880Z,14.20
2022-10-19T19:55:15.703Z,14.50
2022-10-19T19:58:01.492Z,13.93
2022-10-19T20:00:47.377Z,13.63
2022-10-19T20:03:33.367Z,14.35
2022-10-19T20:06:23.545Z,14.52
2022-10-19T20:09:12.019Z,14.07
2022-10-19T20:11:57.955Z,12.77
2022-10-19T20:14:43.364Z,13.60
2022-10-19T20:17:28.910Z,14.07
2022-10-19T20:20:15.561Z,13.65
2022-10-19T20:23:01.256Z,14.90
2022-10-19T20:25:46.621Z,13.45
2022-10-19T20:28:33.369Z,14.05
2022-10-19T20:31:20.060Z,13.38
2022-10-19T20:34:09.157Z,14.27
2022-10-19T20:36:54.556Z,14.75
2022-10-19T20:39:43.052Z,13.98
2022-10-19T20:42:28.689Z,15.75
2022-10-19T20:45:15.902Z,14.43
2022-10-19T20:48:01.220Z,14.90
2022-10-19T20:50:47.874Z,16.00
2022-10-19T20:53:33.630Z,16.00
2022-10-19T20:56:23.651Z,15.98
2022-10-19T20:59:13.672Z,17.35
2022-10-19T21:01:59.431Z,16.40
2022-10-19T21:04:45.018Z,17.65
2022-10-19T21:07:30.330Z,16.13
2022-10-19T21:10:16.067Z,17.52
2022-10-19T21:13:01.507Z,15.55
2022-10-19T21:15:47.105Z,16.40
2022-10-19T21:18:33.382Z,16.50
2022-10-19T21:21:30.577Z,15.88
2022-10-19T21:24:19.242Z,16.63
2022-10-19T21:27:07.987Z,17.33
2022-10-19T21:29:53.610Z,16.45
2022-10-19T21:32:38.948Z,18.17
2022-10-19T21:35:24.399Z,17.15
2022-10-19T21:38:09.642Z,17.30
2022-10-19T21:41:04.221Z,17.25
2022-10-19T21:43:49.616Z,16.48
2022-10-19T21:46:35.208Z,16.70
2022-10-19T21:49:20.539Z,15.63
2022-10-19T21:52:06.175Z,16.45
2022-10-19T21:54:53.583Z,15.45
2022-10-19T21:57:39.222Z,16.85
2022-10-19T22:00:24.839Z,15.65
2022-10-19T22:03:10.684Z,15.23
2022-10-19T22:05:56.648Z,15.43
2022-10-19T22:08:46.369Z,17.58
2022-10-19T22:11:32.067Z,16.83
2022-10-19T22:14:18.035Z,16.60
2022-10-19T22:17:03.338Z,16.42
2022-10-19T22:19:50.631Z,17.83
2022-10-19T22:22:36.226Z,17.55
2022-10-19T22:25:22.098Z,17.95
2022-10-19T22:28:07.547Z,17.52
2022-10-19T22:30:57.768Z,19.13
2022-10-19T22:33:43.296Z,19.35
2022-10-19T22:36:28.794Z,18.15
2022-10-19T22:39:15.124Z,18.38
2022-10-19T22:42:00.857Z,18.25
2022-10-19T22:44:46.241Z,18.38
2022-10-19T22:47:31.824Z,18.50
2022-10-19T22:50:17.358Z,19.92
2022-10-19T22:53:03.143Z,18.98
2022-10-19T22:55:48.737Z,18.65
2022-10-19T22:58:34.238Z,17.35
2022-10-19T23:01:20.243Z,16.35
2022-10-19T23:04:06.032Z,17.48
2022-10-19T23:06:51.311Z,16.90
2022-10-19T23:09:36.780Z,17.55
2022-10-19T23:12:22.481Z,18.23
2022-10-19T23:15:08.840Z,18.65
2022-10-19T23:17:54.025Z,17.38
2022-10-19T23:20:39.649Z,17.13
2022-10-19T23:23:25.849Z,18.25
2022-10-19T23:26:16.773Z,18.20
2022-10-19T23:29:02.218Z,19.75
2022-10-19T23:31:48.404Z,19.10
2022-10-19T23:37:24.138Z,20.13
2022-10-19T23:40:10.191Z,19.48
2022-10-19T23:42:55.699Z,18.05
2022-10-19T23:45:41.201Z,18.90
2022-10-19T23:48:26.907Z,19.77
2022-10-19T23:51:15.278Z,20.08
2022-10-19T23:54:00.433Z,20.10
2022-10-19T23:56:45.967Z,20.60
2022-10-19T23:59:31.536Z,19.55
